createdAt,value
2022-08-07T00:00:40.457Z,0.00
2022-08-07T00:01:43.896Z,0.00
2022-08-07T00:02:44.302Z,0.00
2022-08-07T00:03:40.684Z,0.00
2022-08-07T00:05:39.784Z,0.00
2022-08-07T00:06:45.520Z,0.00
2022-08-07T00:07:41.734Z,0.00
2022-08-07T00:08:40.469Z,0.00
2022-08-07T00:09:40.259Z,0.00
2022-08-07T00:10:48.000Z,0.00
2022-08-07T00:11:53.951Z,0.00
2022-08-07T00:12:43.632Z,0.00
2022-08-07T00:13:44.854Z,0.00
2022-08-07T00:14:40.454Z,0.00
2022-08-07T00:15:46.702Z,0.00
2022-08-07T00:16:40.533Z,0.00
2022-08-07T00:17:39.612Z,0.00
2022-08-07T00:20:01.553Z,0.00
2022-08-07T00:20:40.896Z,0.00
2022-08-07T00:21:56.634Z,0.00
2022-08-07T00:22:42.240Z,0.00
2022-08-07T00:23:41.092Z,0.00
2022-08-07T00:24:40.166Z,0.00
2022-08-07T00:25:41.524Z,0.00
2022-08-07T00:26:59.323Z,0.00
2022-08-07T00:27:52.609Z,0.00
2022-08-07T00:28:45.572Z,0.00
2022-08-07T00:29:40.507Z,0.00
2022-08-07T00:30:39.563Z,0.00
2022-08-07T00:31:41.470Z,0.00
2022-08-07T00:32:39.824Z,0.00
2022-08-07T00:33:39.834Z,0.00
2022-08-07T00:34:39.927Z,0.00
2022-08-07T00:35:40.002Z,0.00
2022-08-07T00:36:42.994Z,0.00
2022-08-07T00:37:47.790Z,0.00
2022-08-07T00:38:41.239Z,0.00
2022-08-07T00:39:44.818Z,0.00
2022-08-07T00:40:40.869Z,0.00
2022-08-07T00:41:45.324Z,0.00
2022-08-07T00:42:40.546Z,0.00
2022-08-07T00:43:58.910Z,0.00
2022-08-07T00:44:41.655Z,0.00
2022-08-07T00:45:39.774Z,0.00
2022-08-07T00:46:39.919Z,0.00
2022-08-07T00:48:10.143Z,0.00
2022-08-07T00:48:42.237Z,0.00
2022-08-07T00:50:20.671Z,0.00
2022-08-07T00:50:50.242Z,0.00
2022-08-07T00:51:58.216Z,0.00
2022-08-07T00:52:40.317Z,0.00
2022-08-07T00:53:50.435Z,0.00
2022-08-07T00:54:41.505Z,0.00
2022-08-07T00:56:00.340Z,0.00
2022-08-07T00:56:40.630Z,0.00
2022-08-07T00:57:44.447Z,0.00
2022-08-07T00:58:40.797Z,0.00
2022-08-07T00:59:39.899Z,0.00
2022-08-07T01:00:39.065Z,0.00
2022-08-07T01:01:44.092Z,0.00
2022-08-07T01:02:39.728Z,0.00
2022-08-07T01:03:55.546Z,0.00
2022-08-07T01:04:43.453Z,0.00
2022-08-07T01:05:39.426Z,0.00
2022-08-07T01:06:40.472Z,0.00
2022-08-07T01:07:39.522Z,0.00
2022-08-07T01:08:51.262Z,0.00
2022-08-07T01:10:07.211Z,0.00
2022-08-07T01:10:40.781Z,0.00
2022-08-07T01:12:27.804Z,0.00
2022-08-07T01:12:39.837Z,0.00
2022-08-07T01:13:39.894Z,0.00
2022-08-07T01:14:39.957Z,0.00
2022-08-07T01:16:01.016Z,0.00
2022-08-07T01:16:42.941Z,0.00
2022-08-07T01:17:40.034Z,0.00
2022-08-07T01:18:39.262Z,0.00
2022-08-07T01:19:39.907Z,0.00
2022-08-07T01:20:43.151Z,0.00
2022-08-07T01:21:39.490Z,0.00
2022-08-07T01:22:46.833Z,0.00
2022-08-07T01:23:42.694Z,0.00
2022-08-07T01:24:40.658Z,0.00
2022-08-07T01:25:40.326Z,0.00
2022-08-07T01:26:42.066Z,0.00
2022-08-07T01:27:41.161Z,0.00
2022-08-07T01:28:39.929Z,0.00
2022-08-07T01:29:38.982Z,0.00
2022-08-07T01:30:39.077Z,0.00
2022-08-07T01:31:42.871Z,0.00
2022-08-07T01:32:40.768Z,0.00
2022-08-07T01:33:55.430Z,0.00
2022-08-07T01:34:40.414Z,0.00
2022-08-07T01:35:53.828Z,0.00
2022-08-07T01:36:40.592Z,0.00
2022-08-07T01:37:38.548Z,0.00
2022-08-07T01:38:38.663Z,0.00
2022-08-07T01:39:40.702Z,0.00
2022-08-07T01:40:39.752Z,0.00
2022-08-07T01:41:38.843Z,0.00
2022-08-07T01:42:58.819Z,0.00
2022-08-07T01:43:40.032Z,0.00
2022-08-07T01:44:39.101Z,0.00
2022-08-07T01:45:39.937Z,0.00
2022-08-07T01:46:39.275Z,0.00
2022-08-07T01:48:19.023Z,0.00
2022-08-07T01:48:41.142Z,0.00
2022-08-07T01:49:38.495Z,0.00
2022-08-07T01:50:43.200Z,0.00
2022-08-07T01:52:02.074Z,0.00
2022-08-07T01:52:39.695Z,0.00
2022-08-07T01:54:08.541Z,0.00
2022-08-07T01:54:39.921Z,0.00
2022-08-07T01:55:38.939Z,0.00
2022-08-07T01:56:39.029Z,0.00
2022-08-07T01:58:05.691Z,0.00
2022-08-07T01:58:41.073Z,0.00
2022-08-07T01:59:42.186Z,0.00
2022-08-07T02:00:38.832Z,0.00
2022-08-07T02:02:00.014Z,0.00
2022-08-07T02:03:18.299Z,0.00
2022-08-07T02:03:48.925Z,0.00
2022-08-07T02:04:39.618Z,0.00
2022-08-07T02:05:48.072Z,0.00
2022-08-07T02:06:39.756Z,0.00
2022-08-07T02:07:50.013Z,0.00
2022-08-07T02:08:39.883Z,0.00
2022-08-07T02:09:52.773Z,0.00
2022-08-07T02:10:42.113Z,0.00
2022-08-07T02:12:04.170Z,0.00
2022-08-07T02:12:39.138Z,0.00
2022-08-07T02:13:57.713Z,0.00
2022-08-07T02:14:40.827Z,0.00
2022-08-07T02:15:38.381Z,0.00
2022-08-07T02:16:38.597Z,0.00
2022-08-07T02:17:38.528Z,0.00
2022-08-07T02:18:38.613Z,0.00
2022-08-07T02:20:07.470Z,0.00
2022-08-07T02:20:39.760Z,0.00
2022-08-07T02:21:55.879Z,0.00
2022-08-07T02:22:41.498Z,0.00
2022-08-07T02:23:37.994Z,0.00
2022-08-07T02:24:38.079Z,0.00
2022-08-07T02:26:26.721Z,0.00
2022-08-07T02:26:44.459Z,0.00
2022-08-07T02:27:41.121Z,0.00
2022-08-07T02:28:38.397Z,0.00
2022-08-07T02:29:48.899Z,0.00
2022-08-07T02:30:39.565Z,0.00
2022-08-07T02:31:38.660Z,0.00
2022-08-07T02:33:00.124Z,0.00
2022-08-07T02:33:57.310Z,0.00
2022-08-07T02:34:38.852Z,0.00
2022-08-07T02:36:29.500Z,0.00
2022-08-07T02:36:39.013Z,0.00
2022-08-07T02:37:38.091Z,0.00
2022-08-07T02:38:39.147Z,0.00
2022-08-07T02:39:43.383Z,0.00
2022-08-07T02:40:39.329Z,0.00
2022-08-07T02:41:38.342Z,0.00
2022-08-07T02:42:38.587Z,0.00
2022-08-07T02:43:39.733Z,0.00
2022-08-07T02:44:38.551Z,0.00
2022-08-07T02:45:58.028Z,0.00
2022-08-07T02:46:38.685Z,0.00
2022-08-07T02:47:45.070Z,0.00
2022-08-07T02:49:56.497Z,0.00
2022-08-07T02:50:39.072Z,0.00
2022-08-07T02:51:49.533Z,0.00
2022-08-07T02:52:38.896Z,0.00
2022-08-07T02:53:38.457Z,0.00
2022-08-07T02:54:38.085Z,0.00
2022-08-07T02:56:03.291Z,0.00
2022-08-07T02:56:39.292Z,0.00
2022-08-07T02:57:38.402Z,0.00
2022-08-07T02:58:39.712Z,0.00
2022-08-07T02:59:38.579Z,0.00
2022-08-07T03:00:39.179Z,0.00
2022-08-07T03:01:40.270Z,0.00
2022-08-07T03:02:37.884Z,0.02
2022-08-07T03:03:49.964Z,0.02
2022-08-07T03:04:39.089Z,0.00
2022-08-07T03:05:38.190Z,0.00
2022-08-07T03:06:38.752Z,0.01
2022-08-07T03:07:58.859Z,0.01
2022-08-07T03:08:38.406Z,0.00
2022-08-07T03:09:43.628Z,0.01
2022-08-07T03:10:41.042Z,0.01
2022-08-07T03:11:51.700Z,0.01
2022-08-07T03:12:38.761Z,0.01
2022-08-07T03:13:38.669Z,0.01
2022-08-07T03:14:37.967Z,0.02
2022-08-07T03:15:54.099Z,0.02
2022-08-07T03:16:38.460Z,0.02
2022-08-07T03:17:53.932Z,0.02
2022-08-07T03:18:38.328Z,0.03
2022-08-07T03:19:37.618Z,0.03
2022-08-07T03:20:37.628Z,0.08
2022-08-07T03:21:37.668Z,0.04
2022-08-07T03:22:38.780Z,0.05
2022-08-07T03:24:19.662Z,0.06
2022-08-07T03:24:39.008Z,0.12
2022-08-07T03:25:40.357Z,0.07
2022-08-07T03:26:51.314Z,0.10
2022-08-07T03:27:58.719Z,0.10
2022-08-07T03:28:39.595Z,0.12
2022-08-07T03:29:37.749Z,0.14
2022-08-07T03:30:37.660Z,0.15
2022-08-07T03:31:42.549Z,0.19
2022-08-07T03:32:38.901Z,0.21
2022-08-07T03:33:40.192Z,0.25
2022-08-07T03:34:39.168Z,0.30
2022-08-07T03:35:43.384Z,0.32
2022-08-07T03:36:38.307Z,0.36
2022-08-07T03:37:46.463Z,0.45
2022-08-07T03:38:38.507Z,0.49
2022-08-07T03:39:58.984Z,0.57
2022-08-07T03:40:38.789Z,0.67
2022-08-07T03:41:42.288Z,0.80
2022-08-07T03:42:37.981Z,0.96
2022-08-07T03:43:37.069Z,1.15
2022-08-07T03:44:37.170Z,1.36
2022-08-07T03:45:39.617Z,1.59
2022-08-07T03:47:11.031Z,1.82
2022-08-07T03:47:45.181Z,2.06
2022-08-07T03:49:01.907Z,2.39
2022-08-07T03:49:38.740Z,2.78
2022-08-07T03:50:36.803Z,3.26
2022-08-07T03:51:47.389Z,3.81
2022-08-07T03:52:37.981Z,4.36
2022-08-07T03:54:05.772Z,4.98
2022-08-07T03:54:55.159Z,5.64
2022-08-07T03:55:46.072Z,6.41
2022-08-07T03:56:38.381Z,7.25
2022-08-07T03:58:33.841Z,8.14
2022-08-07T03:59:08.678Z,9.11
2022-08-07T03:59:37.611Z,10.13
2022-08-07T04:00:37.760Z,11.29
2022-08-07T04:01:37.858Z,12.57
2022-08-07T04:02:41.119Z,13.92
2022-08-07T04:03:49.734Z,15.38
2022-08-07T04:04:38.100Z,16.99
2022-08-07T04:05:39.652Z,18.66
2022-08-07T04:06:38.711Z,20.34
2022-08-07T04:07:42.605Z,22.37
2022-08-07T04:08:37.452Z,24.39
2022-08-07T04:09:45.218Z,26.60
2022-08-07T04:10:38.820Z,28.87
2022-08-07T04:12:15.586Z,31.23
2022-08-07T04:12:38.924Z,34.87
2022-08-07T04:14:10.942Z,39.70
2022-08-07T04:14:45.855Z,45.83
2022-08-07T04:15:38.150Z,50.45
2022-08-07T04:16:37.251Z,57.92
2022-08-07T04:18:31.917Z,64.65
2022-08-07T04:18:59.546Z,71.50
2022-08-07T04:19:51.903Z,77.98
2022-08-07T04:20:37.606Z,84.17
2022-08-07T04:21:37.894Z,90.41
2022-08-07T04:22:53.706Z,97.29
2022-08-07T04:23:43.973Z,102.12
2022-08-07T04:25:08.905Z,112.80
2022-08-07T04:25:39.289Z,117.12
2022-08-07T04:26:36.239Z,127.28
2022-08-07T04:27:43.977Z,140.29
2022-08-07T04:28:37.473Z,151.73
2022-08-07T04:29:48.764Z,159.00
2022-08-07T04:30:55.331Z,164.89
2022-08-07T04:32:02.149Z,172.96
2022-08-07T04:32:37.922Z,182.58
2022-08-07T04:33:37.013Z,204.43
2022-08-07T04:34:39.520Z,225.30
2022-08-07T04:35:36.169Z,237.72
2022-08-07T04:36:36.274Z,238.68
2022-08-07T04:37:52.882Z,245.81
2022-08-07T04:38:37.561Z,261.43
2022-08-07T04:39:36.681Z,268.24
2022-08-07T04:40:43.852Z,267.46
2022-08-07T04:41:37.775Z,273.37
2022-08-07T04:42:36.856Z,289.25
2022-08-07T04:44:11.994Z,303.77
2022-08-07T04:44:37.036Z,313.68
2022-08-07T04:45:57.269Z,326.27
2022-08-07T04:46:59.524Z,344.52
2022-08-07T04:48:02.821Z,363.05
2022-08-07T04:48:37.436Z,382.78
2022-08-07T04:49:38.398Z,402.38
2022-08-07T04:50:36.995Z,417.65
2022-08-07T04:51:37.643Z,421.63
2022-08-07T04:52:36.765Z,417.03
2022-08-07T04:54:01.162Z,421.57
2022-08-07T04:54:36.990Z,431.92
2022-08-07T04:58:09.807Z,441.51
2022-08-07T04:58:10.351Z,460.73
2022-08-07T04:58:16.094Z,451.13
2022-08-07T04:59:07.681Z,469.07
2022-08-07T05:00:12.874Z,477.45
2022-08-07T05:00:37.616Z,486.91
2022-08-07T05:01:36.707Z,496.68
2022-08-07T05:02:36.696Z,507.00
2022-08-07T05:04:00.234Z,515.65
2022-08-07T05:04:36.797Z,523.08
2022-08-07T05:05:54.553Z,531.23
2022-08-07T05:06:43.179Z,540.21
2022-08-07T05:07:48.627Z,548.65
2022-08-07T05:08:58.864Z,566.02
2022-08-07T05:09:46.369Z,587.67
2022-08-07T05:10:37.433Z,597.71
2022-08-07T05:11:57.422Z,596.23
2022-08-07T05:12:37.639Z,590.23
2022-08-07T05:14:53.516Z,598.21
2022-08-07T05:14:54.377Z,593.97
2022-08-07T05:15:36.877Z,600.79
2022-08-07T05:16:35.970Z,603.98
2022-08-07T05:17:52.578Z,605.96
2022-08-07T05:18:37.191Z,610.36
2022-08-07T05:19:44.922Z,612.60
2022-08-07T05:20:37.348Z,610.42
2022-08-07T05:21:59.942Z,604.64
2022-08-07T05:22:37.518Z,678.51
2022-08-07T05:23:35.757Z,591.87
2022-08-07T05:24:40.653Z,671.27
2022-08-07T05:26:10.490Z,673.13
2022-08-07T05:26:37.899Z,674.11
2022-08-07T05:28:02.793Z,676.02
2022-08-07T05:28:37.079Z,682.82
2022-08-07T05:29:48.029Z,690.01
2022-08-07T05:30:37.305Z,696.34
2022-08-07T05:31:37.918Z,700.97
2022-08-07T05:32:35.463Z,706.57
2022-08-07T05:33:36.888Z,715.35
2022-08-07T05:34:35.645Z,729.73
2022-08-07T05:35:41.938Z,740.05
2022-08-07T05:36:36.839Z,762.16
2022-08-07T05:37:40.773Z,788.59
2022-08-07T05:39:00.168Z,804.80
2022-08-07T05:40:06.439Z,798.42
2022-08-07T05:40:37.283Z,776.07
2022-08-07T05:42:02.786Z,760.30
2022-08-07T05:42:37.052Z,758.61
2022-08-07T05:43:43.363Z,760.99
2022-08-07T05:44:36.479Z,762.60
2022-08-07T05:45:47.455Z,768.16
2022-08-07T05:46:36.661Z,773.77
2022-08-07T05:47:37.873Z,778.26
2022-08-07T05:48:36.785Z,786.76
2022-08-07T05:49:40.794Z,791.91
2022-08-07T05:50:35.956Z,793.04
2022-08-07T05:51:40.062Z,797.86
2022-08-07T05:52:36.169Z,805.40
2022-08-07T05:54:12.983Z,813.35
2022-08-07T05:54:53.314Z,818.66
2022-08-07T05:56:01.949Z,814.82
2022-08-07T05:56:36.397Z,806.16
2022-08-07T05:57:38.038Z,807.52
2022-08-07T05:58:37.423Z,809.40
2022-08-07T05:59:47.269Z,810.00
2022-08-07T06:00:36.724Z,811.91
2022-08-07T06:01:36.155Z,812.45
2022-08-07T06:02:35.851Z,815.28
2022-08-07T06:03:53.287Z,811.07
2022-08-07T06:04:35.985Z,817.20
2022-08-07T06:05:35.026Z,817.52
2022-08-07T06:06:35.098Z,818.23
2022-08-07T06:08:13.747Z,818.86
2022-08-07T06:08:40.622Z,818.78
2022-08-07T06:10:04.400Z,818.85
2022-08-07T06:10:36.396Z,823.24
2022-08-07T06:11:35.484Z,827.60
2022-08-07T06:12:35.706Z,841.54
2022-08-07T06:14:12.077Z,862.75
2022-08-07T06:14:36.718Z,884.31
2022-08-07T06:15:42.392Z,900.61
2022-08-07T06:16:35.872Z,919.05
2022-08-07T06:17:37.358Z,933.18
2022-08-07T06:18:35.914Z,914.77
2022-08-07T06:19:51.921Z,897.79
2022-08-07T06:20:51.074Z,893.76
2022-08-07T06:22:16.134Z,902.45
2022-08-07T06:22:40.136Z,928.44
2022-08-07T06:24:38.625Z,950.11
2022-08-07T06:24:45.541Z,945.32
2022-08-07T06:25:36.533Z,933.34
2022-08-07T06:26:35.698Z,925.28
2022-08-07T06:27:43.990Z,914.22
2022-08-07T06:28:35.689Z,906.68
2022-08-07T06:29:34.862Z,901.44
2022-08-07T06:30:37.378Z,900.29
2022-08-07T06:31:47.345Z,899.70
2022-08-07T06:32:35.967Z,894.41
2022-08-07T06:33:35.027Z,897.02
2022-08-07T06:34:36.067Z,905.85
2022-08-07T06:35:45.518Z,923.79
2022-08-07T06:36:36.292Z,949.02
2022-08-07T06:37:43.538Z,954.96
2022-08-07T06:38:36.435Z,928.49
2022-08-07T06:40:17.507Z,915.50
2022-08-07T06:40:35.650Z,907.28
2022-08-07T06:42:01.895Z,896.41
2022-08-07T06:42:35.763Z,891.57
2022-08-07T06:43:39.255Z,888.95
2022-08-07T06:44:36.641Z,888.59
2022-08-07T06:45:35.636Z,889.02
2022-08-07T06:46:35.617Z,882.08
2022-08-07T06:47:38.708Z,883.01
2022-08-07T06:48:36.251Z,876.72
2022-08-07T06:49:35.275Z,875.51
2022-08-07T06:50:36.330Z,871.56
2022-08-07T06:51:35.308Z,868.47
2022-08-07T06:52:36.598Z,872.94
2022-08-07T06:55:28.412Z,887.57
2022-08-07T06:55:33.208Z,911.68
2022-08-07T06:55:52.651Z,920.80
2022-08-07T06:56:35.802Z,920.48
2022-08-07T06:57:43.717Z,895.39
2022-08-07T06:58:35.961Z,867.27
2022-08-07T07:00:12.029Z,856.98
2022-08-07T07:00:36.162Z,842.80
2022-08-07T07:01:43.791Z,829.58
2022-08-07T07:02:48.475Z,826.97
2022-08-07T07:03:47.912Z,817.63
2022-08-07T07:04:35.352Z,810.57
2022-08-07T07:06:04.074Z,805.31
2022-08-07T07:06:39.443Z,802.05
2022-08-07T07:07:59.244Z,791.06
2022-08-07T07:08:35.681Z,790.53
2022-08-07T07:09:36.255Z,787.36
2022-08-07T07:10:34.745Z,776.92
2022-08-07T07:12:08.496Z,771.02
2022-08-07T07:12:35.925Z,765.33
2022-08-07T07:13:55.872Z,758.96
2022-08-07T07:14:37.492Z,752.47
2022-08-07T07:15:36.132Z,754.58
2022-08-07T07:16:34.091Z,766.05
2022-08-07T07:17:39.138Z,773.97
2022-08-07T07:18:47.214Z,773.46
2022-08-07T07:19:57.571Z,781.23
2022-08-07T07:20:35.847Z,785.91
2022-08-07T07:22:04.226Z,775.94
2022-08-07T07:22:39.837Z,759.76
2022-08-07T07:24:10.843Z,754.00
2022-08-07T07:24:37.584Z,750.55
2022-08-07T07:26:34.427Z,761.47
2022-08-07T07:26:37.168Z,767.90
2022-08-07T07:27:35.561Z,772.57
2022-08-07T07:29:22.701Z,775.92
2022-08-07T07:29:39.573Z,779.01
2022-08-07T07:30:38.475Z,782.92
2022-08-07T07:31:39.961Z,785.38
2022-08-07T07:32:35.013Z,788.36
2022-08-07T07:33:34.071Z,790.89
2022-08-07T07:34:34.106Z,794.40
2022-08-07T07:35:43.739Z,792.68
2022-08-07T07:36:35.249Z,796.00
2022-08-07T07:37:49.604Z,800.67
2022-08-07T07:38:36.028Z,804.76
2022-08-07T07:39:35.822Z,806.39
2022-08-07T07:40:35.529Z,809.53
2022-08-07T07:41:50.450Z,811.42
2022-08-07T07:42:35.614Z,811.22
2022-08-07T07:43:47.842Z,809.82
2022-08-07T07:44:34.681Z,812.67
2022-08-07T07:46:37.565Z,819.02
2022-08-07T07:46:37.922Z,814.62
2022-08-07T07:47:52.198Z,822.18
2022-08-07T07:48:36.244Z,824.73
2022-08-07T07:50:34.944Z,825.35
2022-08-07T07:50:40.070Z,827.01
2022-08-07T07:51:58.558Z,826.14
2022-08-07T07:52:35.182Z,826.42
2022-08-07T07:53:34.793Z,827.17
2022-08-07T07:54:34.319Z,827.47
2022-08-07T07:55:37.080Z,828.18
2022-08-07T07:56:34.429Z,831.36
2022-08-07T07:57:53.316Z,833.26
2022-08-07T07:58:40.368Z,835.81
2022-08-07T07:59:52.062Z,836.46
2022-08-07T08:00:34.595Z,835.57
2022-08-07T08:02:03.857Z,836.13
2022-08-07T08:02:35.321Z,842.93
2022-08-07T08:04:10.201Z,845.07
2022-08-07T08:04:34.833Z,846.03
2022-08-07T08:05:54.207Z,852.55
2022-08-07T08:06:34.887Z,856.74
2022-08-07T08:07:35.745Z,859.67
2022-08-07T08:08:36.884Z,860.89
2022-08-07T08:09:52.106Z,860.37
2022-08-07T08:10:38.241Z,856.89
2022-08-07T08:11:59.951Z,869.14
2022-08-07T08:12:58.818Z,866.74
2022-08-07T08:13:43.793Z,868.37
2022-08-07T08:14:36.348Z,871.44
2022-08-07T08:15:57.641Z,878.49
2022-08-07T08:16:35.113Z,881.36
2022-08-07T08:18:34.627Z,891.36
2022-08-07T08:18:36.864Z,887.61
2022-08-07T08:20:16.942Z,895.52
2022-08-07T08:20:34.716Z,896.65
2022-08-07T08:22:02.699Z,898.72
2022-08-07T08:22:34.841Z,903.01
2022-08-07T08:23:34.814Z,907.48
2022-08-07T08:24:36.159Z,907.80
2022-08-07T08:25:43.034Z,909.80
2022-08-07T08:26:35.106Z,912.71
2022-08-07T08:27:33.633Z,916.16
2022-08-07T08:28:38.259Z,919.05
2022-08-07T08:29:34.260Z,923.54
2022-08-07T08:30:34.873Z,928.26
2022-08-07T08:32:17.042Z,931.06
2022-08-07T08:32:38.504Z,935.17
2022-08-07T08:33:33.479Z,940.32
2022-08-07T08:34:33.567Z,939.61
2022-08-07T08:35:39.378Z,940.77
2022-08-07T08:36:34.652Z,943.92
2022-08-07T08:38:00.651Z,940.43
2022-08-07T08:38:38.636Z,943.12
2022-08-07T08:39:39.272Z,944.77
2022-08-07T08:40:34.847Z,948.74
2022-08-07T08:41:58.440Z,953.94
2022-08-07T08:42:34.927Z,957.09
2022-08-07T08:43:42.978Z,965.11
2022-08-07T08:44:41.284Z,965.71
2022-08-07T08:45:41.849Z,966.41
2022-08-07T08:46:34.072Z,970.01
2022-08-07T08:47:34.367Z,970.01
2022-08-07T08:48:36.161Z,972.60
2022-08-07T08:49:46.389Z,976.38
2022-08-07T08:50:38.838Z,977.62
2022-08-07T08:51:49.392Z,979.31
2022-08-07T08:52:35.945Z,990.13
2022-08-07T08:53:34.344Z,991.71
2022-08-07T08:54:33.448Z,994.20
2022-08-07T08:55:54.482Z,999.43
2022-08-07T08:56:35.919Z,1003.70
2022-08-07T08:57:33.977Z,1006.88
2022-08-07T08:58:33.555Z,1006.82
2022-08-07T08:59:42.391Z,1008.90
2022-08-07T09:00:34.547Z,1010.51
2022-08-07T09:01:40.121Z,1015.50
2022-08-07T09:02:37.398Z,1018.17
2022-08-07T09:03:47.437Z,1022.36
2022-08-07T09:04:33.662Z,1021.73
2022-08-07T09:05:37.775Z,1024.30
2022-08-07T09:06:33.751Z,1025.33
2022-08-07T09:07:34.199Z,1037.30
2022-08-07T09:08:33.851Z,1035.64
2022-08-07T09:09:36.514Z,1037.80
2022-08-07T09:10:32.892Z,1042.58
2022-08-07T09:11:50.591Z,1042.64
2022-08-07T09:12:33.954Z,1042.76
2022-08-07T09:13:37.044Z,1047.37
2022-08-07T09:14:34.043Z,1055.74
2022-08-07T09:16:23.931Z,1059.99
2022-08-07T09:16:34.094Z,1066.64
2022-08-07T09:17:33.934Z,1068.48
2022-08-07T09:18:34.969Z,1066.70
2022-08-07T09:19:51.504Z,1069.98
2022-08-07T09:20:35.448Z,1078.86
2022-08-07T09:21:57.857Z,1084.05
2022-08-07T09:24:28.402Z,1087.28
2022-08-07T09:24:31.403Z,1090.91
2022-08-07T09:24:59.403Z,1098.97
2022-08-07T09:25:33.385Z,1103.34
2022-08-07T09:26:32.412Z,1106.31
2022-08-07T09:27:54.713Z,1112.40
2022-08-07T09:30:04.644Z,1114.31
2022-08-07T09:30:05.876Z,1119.38
2022-08-07T09:30:33.430Z,1123.16
2022-08-07T09:31:33.669Z,1129.03
2022-08-07T09:32:33.521Z,1132.60
2022-08-07T09:33:53.163Z,1133.59
2022-08-07T09:34:33.506Z,1137.25
2022-08-07T09:36:04.300Z,1139.00
2022-08-07T09:36:36.960Z,1141.38
2022-08-07T09:37:47.743Z,1141.84
2022-08-07T09:38:33.576Z,1150.06
2022-08-07T09:39:53.739Z,1150.83
2022-08-07T09:40:33.633Z,1147.65
2022-08-07T09:41:36.201Z,1150.34
2022-08-07T09:42:33.904Z,1156.28
2022-08-07T09:43:40.363Z,1159.72
2022-08-07T09:45:03.535Z,1155.93
2022-08-07T09:47:23.903Z,1155.41
2022-08-07T09:47:50.580Z,1158.11
2022-08-07T09:47:56.118Z,1151.16
2022-08-07T09:48:50.040Z,1145.07
2022-08-07T09:50:02.723Z,1141.74
2022-08-07T09:50:33.847Z,1141.26
2022-08-07T09:52:16.614Z,1156.45
2022-08-07T09:52:35.315Z,1172.37
2022-08-07T09:53:40.896Z,1172.15
2022-08-07T09:54:33.926Z,1177.20
2022-08-07T09:56:02.692Z,1180.62
2022-08-07T09:56:39.275Z,1184.09
2022-08-07T09:57:32.896Z,1190.58
2022-08-07T09:58:32.810Z,1188.25
2022-08-07T09:59:44.358Z,1200.08
2022-08-07T10:00:32.897Z,1206.24
2022-08-07T10:01:52.630Z,1212.83
2022-08-07T10:02:32.901Z,1215.99
2022-08-07T10:04:05.661Z,1217.32
2022-08-07T10:04:33.473Z,1217.53
2022-08-07T10:05:59.566Z,1221.87
2022-08-07T10:06:33.049Z,1226.40
2022-08-07T10:07:32.032Z,1227.91
2022-08-07T10:08:33.067Z,1232.92
2022-08-07T10:09:42.621Z,1236.31
2022-08-07T10:10:53.845Z,1220.43
2022-08-07T10:12:02.693Z,1228.52
2022-08-07T10:12:33.106Z,1235.82
2022-08-07T10:14:00.484Z,1198.19
2022-08-07T10:14:33.169Z,1220.40
2022-08-07T10:15:37.777Z,1212.82
2022-08-07T10:16:33.210Z,1226.09
2022-08-07T10:18:02.746Z,1229.36
2022-08-07T10:18:33.305Z,1231.93
2022-08-07T10:19:32.283Z,1234.43
2022-08-07T10:20:33.282Z,1231.51
2022-08-07T10:22:14.089Z,1228.12
2022-08-07T10:22:36.780Z,1227.87
2022-08-07T10:24:05.506Z,1232.07
2022-08-07T10:24:39.683Z,1239.63
2022-08-07T10:25:42.536Z,1223.84
2022-08-07T10:26:33.373Z,1222.09
2022-08-07T10:27:46.461Z,1221.78
2022-08-07T10:28:33.405Z,1220.93
2022-08-07T10:29:32.417Z,1217.16
2022-08-07T10:30:32.442Z,1214.49
2022-08-07T10:31:38.510Z,1220.02
2022-08-07T10:32:36.847Z,1219.50
2022-08-07T10:34:06.969Z,1220.43
2022-08-07T10:34:33.409Z,1217.82
2022-08-07T10:35:56.059Z,1217.70
2022-08-07T10:36:36.263Z,1216.06
2022-08-07T10:38:00.081Z,1213.48
2022-08-07T10:38:42.259Z,1213.10
2022-08-07T10:39:42.144Z,1214.31
2022-08-07T10:40:32.529Z,1215.11
2022-08-07T10:41:46.242Z,1213.81
2022-08-07T10:42:36.665Z,1217.23
2022-08-07T10:43:34.799Z,1216.18
2022-08-07T10:44:38.296Z,1213.10
2022-08-07T10:45:44.599Z,1216.30
2022-08-07T10:46:32.543Z,1212.58
2022-08-07T10:47:50.664Z,1213.56
2022-08-07T10:48:34.837Z,1215.08
2022-08-07T10:49:49.784Z,1215.22
2022-08-07T10:50:32.565Z,1217.28
2022-08-07T10:51:57.538Z,1216.89
2022-08-07T10:52:33.909Z,1217.66
2022-08-07T10:53:44.247Z,1217.26
2022-08-07T10:54:32.658Z,1216.68
2022-08-07T10:55:37.921Z,1217.53
2022-08-07T10:56:32.691Z,1214.36
2022-08-07T10:57:34.454Z,1219.85
2022-08-07T10:58:33.111Z,1219.82
2022-08-07T10:59:31.913Z,1205.25
2022-08-07T11:00:36.779Z,1220.76
2022-08-07T11:01:35.328Z,1218.83
2022-08-07T11:02:34.348Z,1229.05
2022-08-07T11:03:37.452Z,1220.74
2022-08-07T11:04:37.511Z,1218.70
2022-08-07T11:05:35.749Z,1219.88
2022-08-07T11:06:32.917Z,1221.91
2022-08-07T11:07:59.704Z,1219.36
2022-08-07T11:08:32.924Z,1218.89
2022-08-07T11:10:08.773Z,1217.31
2022-08-07T11:10:32.885Z,1215.91
2022-08-07T11:11:35.637Z,1218.85
2022-08-07T11:12:35.328Z,1216.48
2022-08-07T11:14:44.810Z,1217.74
2022-08-07T11:14:46.242Z,1220.55
2022-08-07T11:15:32.309Z,1213.51
2022-08-07T11:16:30.997Z,1219.85
2022-08-07T11:17:43.344Z,1226.30
2022-08-07T11:18:32.043Z,1232.96
2022-08-07T11:19:31.031Z,1236.12
2022-08-07T11:20:31.014Z,1236.73
2022-08-07T11:21:32.085Z,1235.29
2022-08-07T11:22:37.019Z,1237.13
2022-08-07T11:23:38.444Z,1242.52
2022-08-07T11:24:32.038Z,1258.10
2022-08-07T11:25:31.023Z,1249.20
2022-08-07T11:26:32.108Z,1253.29
2022-08-07T11:28:00.904Z,1255.02
2022-08-07T11:28:32.062Z,1260.09
2022-08-07T11:29:41.819Z,1275.67
2022-08-07T11:30:42.004Z,1268.83
2022-08-07T11:31:34.869Z,1274.61
2022-08-07T11:32:31.124Z,1273.29
2022-08-07T11:33:31.153Z,1279.30
2022-08-07T11:34:32.149Z,1281.72
2022-08-07T11:35:31.157Z,1289.42
2022-08-07T11:36:31.298Z,1290.06
2022-08-07T11:37:38.546Z,1289.96
2022-08-07T11:38:32.178Z,1289.53
2022-08-07T11:39:59.057Z,1297.53
2022-08-07T11:40:32.282Z,1295.50
2022-08-07T11:42:01.596Z,1299.38
2022-08-07T11:42:32.239Z,1296.49
2022-08-07T11:43:54.920Z,1305.20
2022-08-07T11:44:32.230Z,1304.09
2022-08-07T11:45:36.068Z,1310.80
2022-08-07T11:46:32.230Z,1306.39
2022-08-07T11:47:38.670Z,1305.67
2022-08-07T11:48:32.223Z,1305.30
2022-08-07T11:50:18.544Z,1306.19
2022-08-07T11:50:33.461Z,1305.41
2022-08-07T11:51:41.464Z,1305.38
2022-08-07T11:52:37.525Z,1305.67
2022-08-07T11:53:35.239Z,1308.02
2022-08-07T11:54:31.300Z,1303.19
2022-08-07T11:56:25.274Z,1304.09
2022-08-07T11:56:34.290Z,1307.82
2022-08-07T11:58:00.467Z,1309.84
2022-08-07T11:58:33.370Z,1323.14
2022-08-07T12:00:10.576Z,1313.39
2022-08-07T12:00:31.365Z,1307.90
2022-08-07T12:01:59.275Z,1304.15
2022-08-07T12:02:32.936Z,1304.00
2022-08-07T12:03:44.283Z,1303.63
2022-08-07T12:04:31.455Z,1300.58
2022-08-07T12:05:47.438Z,1301.26
2022-08-07T12:06:39.027Z,1301.76
2022-08-07T12:07:39.089Z,1308.52
2022-08-07T12:08:35.067Z,1308.83
2022-08-07T12:09:31.650Z,1307.11
2022-08-07T12:10:30.634Z,1307.76
2022-08-07T12:11:32.185Z,1301.90
2022-08-07T12:12:30.625Z,1306.39
2022-08-07T12:13:37.141Z,1307.96
2022-08-07T12:14:31.635Z,1303.75
2022-08-07T12:15:46.454Z,1297.93
2022-08-07T12:16:31.710Z,1301.26
2022-08-07T12:17:33.574Z,1300.24
2022-08-07T12:18:30.731Z,1304.71
2022-08-07T12:19:35.677Z,1304.05
2022-08-07T12:20:32.558Z,1314.70
2022-08-07T12:21:55.693Z,1311.88
2022-08-07T12:22:37.425Z,1314.03
2022-08-07T12:24:06.047Z,1313.81
2022-08-07T12:24:37.775Z,1314.80
2022-08-07T12:26:03.422Z,1315.81
2022-08-07T12:26:40.552Z,1316.64
2022-08-07T12:28:05.777Z,1319.53
2022-08-07T12:28:31.808Z,1318.34
2022-08-07T12:29:38.016Z,1319.14
2022-08-07T12:30:31.831Z,1316.71
2022-08-07T12:31:52.972Z,1320.83
2022-08-07T12:32:33.815Z,1319.41
2022-08-07T12:34:00.603Z,1318.92
2022-08-07T12:34:31.861Z,1320.18
2022-08-07T12:35:30.871Z,1324.05
2022-08-07T12:36:33.287Z,1324.80
2022-08-07T12:38:09.509Z,1325.66
2022-08-07T12:38:42.701Z,1326.76
2022-08-07T12:39:42.263Z,1327.48